Terminal Aerodrome Forecast
Issued by NWS

Home | Current Version | Previous Version | Text Only | Print | Product List | Glossary On
Versions: 1 2 3 4 5 6 7 8 9 10 11 12 13 14 15
000
FTUS43 KSGF 251100
TAFJLN
TAF
KJLN 251120Z 2512/2612 21008KT P6SM SCT150
     FM260100 21005KT P6SM OVC080
     FM260500 33017G26KT P6SM OVC040 PROB30 2608/2612 5SM -SN SCT015
      OVC025=

USA.gov is the U.S. government's official web portal to all federal, state and local government web resources and services.